Ben Gurion International Airport, Israel

2:46 PM IDT on September 19, 2017 (GMT +0300)
Ben-Shemen | | Change Station

Elev 197 ft 31.95 °N, 34.92 °E | Updated 1 minute ago

Clear
Clear
90.0 °F
Feels Like 107 °F
N
7.6
Wind Variable Wind from West
Gusts 13.6 mph

Today
High -- | Low -- °F
--% Chance of Precip.
Yesterday
High -- | Low -- °F
Precip. -- in
Pressure 29.83 in
Visibility -9999.0 miles
Clouds
Heat Index 107 °F
Dew Point 79 °F
Humidity 71%
Rainfall in
Snow Depth Not available.
6:26 AM 6:41 PM
Waning Crescent, 1% visible
METAR LLBG 191120Z 29012KT 250V320 CAVOK 31/20 Q1010 NOSIG
Pressure 29.83 in
Visibility -9999.0 miles
Clouds
Heat Index 107 °F
Dew Point 79 °F
Humidity 71%
Rainfall in
Snow Depth Not available.
6:26 AM 6:41 PM
Waning Crescent, 1% visible
METAR LLBG 191120Z 29012KT 250V320 CAVOK 31/20 Q1010 NOSIG

Get Severe Weather Alerts

Thanks for signing up!

Be on the lookout for a verification email in your inbox.

You'll start receiving the daily forecast at 6 AM.

×

10-Day Weather Forecast

No radar image for this location.
×

Almanac

Astronomy

Sep. 19, 2017 Rise Set
Actual Time
Civil Twilight
Nautical Twilight
Astronomical Twilight
Moon
Length of Visible Light
Length of Day
Tomorrow will be .
, % of the Moon is Illuminated

Today's Extremes

Country Highs Country Lows

Community

WunderPhotos

Category 6

Welcome to Category 6. This is the collective home for Weather Underground's featured writeups by Dr. Jeff Masters (right), Bob Henson (left), Chris Burt, and other regular contributors.

Nearby

Air Quality

  Air Quality AQ Index Pollutant
Not available.

Snow Depth

Station Depth Elevation

Earthquake Activity

City Distance Mag. Time & Date
Minimum magnitude displayed is 2.5.

Coastal Water Temperatures

Place Temperature

Stations

Nearby Weather Stations

Station Location Temp. Windchill Dew Point Humidity Wind Precip. Elev Updated Type